Time;durP1;ratioP1;P1;durP2;ratioP2;P2;SDS_P1;SDS_P2;PMS_P1;PMS_P2;Temp;Humidity;BMP_temperature;BMP_pressure;BME280_temperature;BME280_humidity;BME280_pressure;Samples;Min_cycle;Max_cycle;Signal;HPM_P1;HPM_P2
2021/05/11 00:02:05;;;;;;;0.60;0.60;;;14.70;73.50;;;;;;6131859;23;20411;-76
2021/05/11 00:04:39;;;;;;;0.87;0.80;;;14.70;74.00;;;;;;6138083;23;20422;-77
2021/05/11 00:07:16;;;;;;;1.20;0.90;;;14.70;74.40;;;;;;6138732;23;20442;-78
2021/05/11 00:09:51;;;;;;;2.50;1.10;;;14.70;74.90;;;;;;6127692;23;20403;-76
2021/05/11 00:12:25;;;;;;;0.97;0.87;;;14.60;75.50;;;;;;6138952;23;20922;-77
2021/05/11 00:15:00;;;;;;;0.90;0.90;;;14.60;75.90;;;;;;6138408;23;20891;-78
2021/05/11 00:17:35;;;;;;;1.37;0.90;;;14.60;76.20;;;;;;6139889;23;20454;-76
2021/05/11 00:20:10;;;;;;;1.83;0.90;;;14.50;76.50;;;;;;6128610;23;20416;-77
2021/05/11 00:22:46;;;;;;;1.10;0.70;;;14.50;77.10;;;;;;6139170;23;20494;-77
2021/05/11 00:25:21;;;;;;;1.23;0.87;;;14.50;77.50;;;;;;6138404;23;20431;-75
2021/05/11 00:27:56;;;;;;;0.70;0.70;;;14.50;77.80;;;;;;6130112;23;20518;-78
2021/05/11 00:30:31;;;;;;;0.97;0.97;;;14.50;78.10;;;;;;6140659;23;20409;-79
2021/05/11 00:33:11;;;;;;;1.63;0.80;;;14.50;78.50;;;;;;6140050;23;20446;-77
2021/05/11 00:35:43;;;;;;;1.23;0.80;;;14.50;78.80;;;;;;6138552;23;20436;-76
2021/05/11 00:38:20;;;;;;;0.90;0.83;;;14.50;78.90;;;;;;6128306;23;20415;-77
2021/05/11 00:40:54;;;;;;;2.93;0.80;;;14.40;79.00;;;;;;6127906;23;20408;-78
2021/05/11 00:43:29;;;;;;;0.90;0.90;;;14.40;79.40;;;;;;6130207;23;20414;-77
2021/05/11 00:46:04;;;;;;;0.93;0.83;;;14.40;79.60;;;;;;6137731;23;20895;-77
2021/05/11 00:48:38;;;;;;;0.90;0.90;;;14.40;79.80;;;;;;6141636;23;20839;-79
2021/05/11 00:51:19;;;;;;;0.80;0.80;;;14.40;80.00;;;;;;6154796;23;20396;-78
2021/05/11 00:53:52;;;;;;;0.90;0.70;;;14.40;80.10;;;;;;6147371;23;20536;-78
2021/05/11 00:56:27;;;;;;;0.90;0.63;;;14.30;80.40;;;;;;6145447;23;20408;-77
2021/05/11 00:59:02;;;;;;;1.23;0.90;;;14.40;80.60;;;;;;6155441;23;20442;-77
2021/05/11 01:01:37;;;;;;;1.13;1.03;;;14.30;80.70;;;;;;6152794;23;20400;-78
2021/05/11 01:04:12;;;;;;;0.93;0.90;;;14.30;80.80;;;;;;6131517;23;20422;-78
2021/05/11 01:06:47;;;;;;;1.10;0.70;;;14.30;80.90;;;;;;6129951;23;20715;-77
2021/05/11 01:09:23;;;;;;;0.90;0.90;;;14.30;80.70;;;;;;6129714;23;20412;-76
2021/05/11 01:12:04;;;;;;;1.00;1.00;;;14.30;80.80;;;;;;6139033;23;20402;-77
2021/05/11 01:14:39;;;;;;;1.13;0.93;;;14.30;81.00;;;;;;6129979;23;20517;-83
2021/05/11 01:17:17;;;;;;;0.90;0.90;;;14.30;81.40;;;;;;6139940;23;20406;-77
2021/05/11 01:19:54;;;;;;;1.10;1.00;;;14.20;81.60;;;;;;6129862;23;20434;-78
2021/05/11 01:22:46;;;;;;;0.90;0.80;;;14.20;81.30;;;;;;6129423;23;20411;-78
2021/05/11 01:25:22;;;;;;;1.13;0.80;;;14.20;81.60;;;;;;6139311;23;20471;-80
2021/05/11 01:28:05;;;;;;;1.30;1.20;;;14.20;82.10;;;;;;6129774;23;20522;-77
2021/05/11 01:31:04;;;;;;;1.13;1.03;;;14.10;82.30;;;;;;6130253;23;20441;-75
2021/05/11 01:50:43;;;;;;;1.07;0.97;;;14.00;83.80;;;;;;6119630;23;20898;-77
2021/05/11 02:24:52;;;;;;;1.70;1.23;;;13.70;87.40;;;;;;6137768;23;20432;-76
2021/05/11 02:27:27;;;;;;;1.00;0.90;;;13.70;87.60;;;;;;6126619;23;20466;-76
2021/05/11 02:30:04;;;;;;;1.50;1.37;;;13.70;87.80;;;;;;6138259;23;20403;-78
2021/05/11 02:32:38;;;;;;;1.73;1.60;;;13.70;87.80;;;;;;6139683;23;20883;-76
2021/05/11 02:35:16;;;;;;;1.33;1.23;;;13.70;88.00;;;;;;6137175;23;20419;-76
2021/05/11 02:37:52;;;;;;;1.30;1.20;;;13.70;88.10;;;;;;6139825;23;21160;-76
2021/05/11 02:40:28;;;;;;;1.50;1.40;;;13.70;88.30;;;;;;6138293;23;20493;-75
2021/05/11 02:43:05;;;;;;;1.63;1.53;;;13.70;88.50;;;;;;6137967;23;20897;-77
2021/05/11 02:45:45;;;;;;;1.60;1.50;;;13.70;88.60;;;;;;6136799;23;20903;-76
2021/05/11 02:48:20;;;;;;;1.30;1.20;;;13.70;88.60;;;;;;6137745;23;20494;-76
2021/05/11 02:50:55;;;;;;;2.80;1.30;;;13.70;88.70;;;;;;6125787;23;21158;-76
2021/05/11 02:53:30;;;;;;;1.90;1.70;;;13.60;89.00;;;;;;6137176;23;20498;-78
2021/05/11 02:56:05;;;;;;;1.83;1.10;;;13.60;89.20;;;;;;6138734;23;20901;-75
2021/05/11 02:58:42;;;;;;;1.57;1.47;;;13.60;89.40;;;;;;6139088;23;20438;-78
2021/05/11 03:01:19;;;;;;;1.30;1.20;;;13.60;90.00;;;;;;6139535;23;20415;-75
2021/05/11 03:03:53;;;;;;;1.20;1.10;;;13.60;89.80;;;;;;6139571;23;20713;-76
2021/05/11 03:06:44;;;;;;;1.73;1.30;;;13.60;90.20;;;;;;6138018;23;20411;-77
2021/05/11 03:09:20;;;;;;;1.83;1.47;;;13.50;90.10;;;;;;6136927;23;21200;-76
2021/05/11 03:11:55;;;;;;;1.20;1.13;;;13.50;90.40;;;;;;6136040;23;20411;-75
2021/05/11 03:14:33;;;;;;;2.90;1.70;;;13.50;90.50;;;;;;6129020;23;20401;-78
2021/05/11 03:17:09;;;;;;;1.60;1.50;;;13.40;90.60;;;;;;6136488;23;20422;-76
2021/05/11 03:19:43;;;;;;;7.30;1.40;;;13.40;91.00;;;;;;6127719;23;20451;-76
2021/05/11 03:22:18;;;;;;;1.60;1.50;;;13.40;91.20;;;;;;6136910;23;20918;-76
2021/05/11 03:24:53;;;;;;;2.00;1.63;;;13.30;91.40;;;;;;6128278;23;20506;-76
2021/05/11 03:27:28;;;;;;;1.30;1.20;;;13.40;91.20;;;;;;6127916;23;20529;-75
2021/05/11 03:30:03;;;;;;;1.23;1.13;;;13.40;91.20;;;;;;6130054;23;20726;-77
2021/05/11 03:32:36;;;;;;;1.33;1.23;;;13.40;91.50;;;;;;6138801;23;20415;-84
2021/05/11 03:35:11;;;;;;;1.47;1.30;;;13.30;91.70;;;;;;6130555;23;20425;-76
2021/05/11 03:37:46;;;;;;;1.53;1.37;;;13.30;92.00;;;;;;6139327;23;20896;-77
2021/05/11 03:40:18;;;;;;;1.40;1.30;;;13.30;92.20;;;;;;6139508;23;20395;-78
2021/05/11 03:42:57;;;;;;;1.80;1.70;;;13.20;92.30;;;;;;6128472;23;20415;-77
2021/05/11 03:45:36;;;;;;;1.50;1.40;;;13.20;92.40;;;;;;6128270;23;20490;-79
2021/05/11 03:48:12;;;;;;;2.70;1.30;;;13.20;92.50;;;;;;6127518;23;20442;-78
2021/05/11 03:50:46;;;;;;;1.87;1.60;;;13.30;92.60;;;;;;6138378;23;20450;-78
2021/05/11 03:53:21;;;;;;;1.77;1.67;;;13.20;92.70;;;;;;6138245;23;20419;-77
2021/05/11 03:55:56;;;;;;;2.67;1.90;;;13.30;92.80;;;;;;6129866;23;20485;-77
2021/05/11 03:58:31;;;;;;;2.13;1.93;;;13.30;92.60;;;;;;6128989;23;20461;-80
2021/05/11 04:01:07;;;;;;;3.33;2.03;;;13.30;92.70;;;;;;6130283;23;20418;-78
2021/05/11 04:03:42;;;;;;;1.73;1.63;;;13.30;92.80;;;;;;6138479;23;20416;-78
2021/05/11 04:06:17;;;;;;;2.50;1.67;;;13.30;92.80;;;;;;6129466;23;20522;-79
2021/05/11 04:08:54;;;;;;;2.10;1.90;;;13.30;92.90;;;;;;6139641;23;20479;-78
2021/05/11 04:11:53;;;;;;;1.80;1.50;;;13.30;92.90;;;;;;6128898;23;20401;-82
2021/05/11 04:17:18;;;;;;;2.40;1.80;;;13.40;92.90;;;;;;6138679;23;20406;-77
2021/05/11 04:19:54;;;;;;;2.30;2.10;;;13.40;92.60;;;;;;6137812;23;20417;-80
2021/05/11 04:22:29;;;;;;;1.93;1.70;;;13.40;92.70;;;;;;6143060;23;20437;-79
2021/05/11 04:25:03;;;;;;;1.87;1.67;;;13.40;92.60;;;;;;6156310;23;20425;-79
2021/05/11 04:27:35;;;;;;;3.03;1.90;;;13.50;92.40;;;;;;6156102;23;20450;-79
2021/05/11 04:30:12;;;;;;;1.70;1.60;;;13.60;92.10;;;;;;6155353;23;20403;-78
2021/05/11 04:32:47;;;;;;;1.77;1.67;;;13.60;92.00;;;;;;6154698;23;20449;-81
2021/05/11 04:35:23;;;;;;;2.30;2.10;;;13.60;91.60;;;;;;6135030;23;20399;-77
2021/05/11 04:37:58;;;;;;;2.20;1.77;;;13.70;91.50;;;;;;6142097;23;20419;-80
2021/05/11 04:40:34;;;;;;;2.33;1.90;;;13.60;91.60;;;;;;6140715;23;20417;-77
2021/05/11 04:43:08;;;;;;;2.00;1.80;;;13.70;91.50;;;;;;6139905;23;20417;-85
2021/05/11 04:45:44;;;;;;;2.40;2.20;;;13.70;91.20;;;;;;6129832;23;20424;-79
2021/05/11 04:48:19;;;;;;;3.07;2.17;;;13.80;91.00;;;;;;6139311;23;20493;-78
2021/05/11 04:50:55;;;;;;;5.00;2.10;;;13.80;91.10;;;;;;6139769;23;20419;-77
2021/05/11 04:53:29;;;;;;;3.03;2.40;;;13.90;91.00;;;;;;6139475;23;20418;-76
2021/05/11 04:56:05;;;;;;;2.30;2.10;;;13.80;91.10;;;;;;6131099;23;20470;-81
2021/05/11 04:58:40;;;;;;;2.70;2.50;;;13.70;91.70;;;;;;6130539;23;20406;-76
2021/05/11 05:01:14;;;;;;;2.53;2.33;;;13.60;92.00;;;;;;6139455;23;20411;-80
2021/05/11 05:03:52;;;;;;;3.63;2.30;;;13.70;91.70;;;;;;6140423;23;20418;-76
2021/05/11 05:06:28;;;;;;;2.90;2.70;;;13.80;91.80;;;;;;6140078;23;20442;-77
2021/05/11 05:09:03;;;;;;;2.20;2.00;;;13.80;91.80;;;;;;6140500;23;20427;-77
2021/05/11 05:11:40;;;;;;;2.40;2.20;;;13.70;91.90;;;;;;6141207;23;20403;-78
2021/05/11 05:14:15;;;;;;;4.67;2.70;;;13.70;92.00;;;;;;6129857;23;20414;-79
2021/05/11 05:16:50;;;;;;;3.13;2.87;;;13.70;91.90;;;;;;6142138;23;20426;-77
2021/05/11 05:19:22;;;;;;;3.13;2.83;;;14.10;91.20;;;;;;6138607;23;20918;-80
2021/05/11 05:21:58;;;;;;;5.07;3.40;;;14.20;91.10;;;;;;6140127;23;20415;-81
2021/05/11 05:24:35;;;;;;;4.20;3.17;;;14.10;91.10;;;;;;6130491;23;20433;-77
2021/05/11 05:27:17;;;;;;;3.90;3.33;;;14.70;91.20;;;;;;6139698;23;20439;-79
2021/05/11 05:29:49;;;;;;;3.10;2.87;;;18.40;80.20;;;;;;6139433;23;20416;-78
2021/05/11 05:32:21;;;;;;;3.60;3.30;;;20.00;74.40;;;;;;6139428;23;20435;-78
2021/05/11 05:34:57;;;;;;;3.40;3.10;;;20.70;71.90;;;;;;6142011;23;20420;-77
2021/05/11 05:37:33;;;;;;;3.60;3.30;;;19.10;72.80;;;;;;6140241;23;20466;-78
2021/05/11 05:40:09;;;;;;;7.13;3.80;;;19.80;71.80;;;;;;6140998;23;20414;-77
2021/05/11 05:42:44;;;;;;;4.43;3.53;;;20.10;71.20;;;;;;6130961;23;20408;-77
2021/05/11 05:45:20;;;;;;;3.97;3.57;;;20.40;69.90;;;;;;6129534;23;20415;-77
2021/05/11 05:47:55;;;;;;;7.63;3.33;;;19.80;71.10;;;;;;6140019;23;20489;-77
2021/05/11 05:50:32;;;;;;;3.77;3.47;;;19.20;71.70;;;;;;6126737;23;20475;-77
2021/05/11 05:53:13;;;;;;;3.60;3.30;;;19.10;72.50;;;;;;6138761;23;20397;-82
2021/05/11 05:55:48;;;;;;;4.80;3.70;;;18.20;72.30;;;;;;6140275;23;20417;-77
2021/05/11 05:58:23;;;;;;;5.53;4.07;;;15.80;76.10;;;;;;6125557;23;20423;-82
2021/05/11 06:00:56;;;;;;;4.20;3.90;;;15.30;79.80;;;;;;6139901;23;20442;-77
2021/05/11 06:03:36;;;;;;;5.13;4.67;;;15.30;81.40;;;;;;6127801;23;20421;-78
2021/05/11 06:06:12;;;;;;;7.13;4.93;;;15.40;81.80;;;;;;6139081;23;20858;-77
2021/05/11 06:08:58;;;;;;;7.10;4.40;;;15.00;83.30;;;;;;6130263;23;20440;-77
2021/05/11 06:11:41;;;;;;;4.63;4.30;;;14.80;84.00;;;;;;6129012;23;20549;-78
2021/05/11 06:14:24;;;;;;;4.77;4.37;;;15.00;84.70;;;;;;6138248;23;20441;-75
2021/05/11 06:17:17;;;;;;;5.87;5.30;;;14.90;84.30;;;;;;6126781;23;20450;-76
2021/05/11 06:19:54;;;;;;;6.03;5.00;;;15.00;84.50;;;;;;6137517;23;20419;-76
2021/05/11 06:22:35;;;;;;;4.83;4.43;;;15.20;84.00;;;;;;6138071;23;20402;-77
2021/05/11 06:25:17;;;;;;;5.50;4.90;;;15.20;82.90;;;;;;6139151;23;21207;-77
2021/05/11 06:27:49;;;;;;;4.80;4.30;;;15.40;82.80;;;;;;6137825;23;20468;-80
2021/05/11 06:30:25;;;;;;;4.60;4.30;;;15.80;80.70;;;;;;6128317;23;20469;-77
2021/05/11 06:33:01;;;;;;;4.80;4.10;;;15.90;78.90;;;;;;6128041;23;20538;-78
2021/05/11 06:35:35;;;;;;;4.00;3.60;;;15.70;79.10;;;;;;6139577;23;20498;-77
2021/05/11 06:38:14;;;;;;;4.43;4.03;;;15.80;79.40;;;;;;6139839;23;20461;-78
2021/05/11 06:40:51;;;;;;;4.13;3.63;;;16.20;78.50;;;;;;6139240;23;20420;-79
2021/05/11 06:43:35;;;;;;;4.30;3.70;;;16.30;77.60;;;;;;6137440;23;20415;-79
2021/05/11 06:46:38;;;;;;;3.80;3.50;;;16.30;77.30;;;;;;6138453;23;20965;-78
2021/05/11 06:49:27;;;;;;;4.83;4.40;;;16.20;77.10;;;;;;6122397;23;20455;-84
2021/05/11 06:54:53;;;;;;;3.87;3.60;;;16.40;77.10;;;;;;6131907;23;20891;-77
2021/05/11 06:57:30;;;;;;;4.00;3.70;;;16.20;77.70;;;;;;6132868;23;20388;-77
2021/05/11 07:00:05;;;;;;;4.30;3.90;;;15.90;76.50;;;;;;6120758;23;20448;-77
2021/05/11 07:02:37;;;;;;;6.67;3.67;;;16.30;76.70;;;;;;6132077;23;20491;-78
2021/05/11 07:05:13;;;;;;;3.30;3.00;;;16.60;75.80;;;;;;6121728;23;20895;-78
2021/05/11 07:07:48;;;;;;;4.27;3.97;;;16.90;75.80;;;;;;6132592;23;20455;-78
2021/05/11 07:10:28;;;;;;;4.33;3.93;;;16.90;75.50;;;;;;6122181;23;20970;-78
2021/05/11 07:13:14;;;;;;;3.97;3.60;;;16.50;75.20;;;;;;6133591;23;20412;-73
2021/05/11 07:15:49;;;;;;;5.17;4.10;;;16.50;76.10;;;;;;6132249;23;20412;-77
2021/05/11 07:18:27;;;;;;;4.53;4.07;;;16.70;76.40;;;;;;6134325;23;20741;-83
2021/05/11 07:21:03;;;;;;;5.53;3.50;;;16.80;75.90;;;;;;6132744;23;20405;-77
2021/05/11 07:23:39;;;;;;;4.40;4.00;;;16.80;75.30;;;;;;6131809;23;20389;-77
2021/05/11 07:26:25;;;;;;;4.70;4.10;;;16.70;75.30;;;;;;6131991;23;20428;-76
2021/05/11 07:29:10;;;;;;;5.53;5.10;;;16.50;75.80;;;;;;6123282;23;20772;-75
2021/05/11 07:31:45;;;;;;;4.87;4.50;;;15.80;76.20;;;;;;6134014;23;20428;-79
2021/05/11 07:34:20;;;;;;;4.30;3.90;;;16.60;76.50;;;;;;6124690;23;20471;-79
2021/05/11 07:36:55;;;;;;;4.60;4.20;;;16.60;75.80;;;;;;6122104;23;20426;-77
2021/05/11 07:39:30;;;;;;;3.90;3.60;;;16.30;76.00;;;;;;6132635;23;20415;-76
2021/05/11 07:42:05;;;;;;;5.30;4.90;;;16.50;76.90;;;;;;6132726;23;20411;-75
2021/05/11 07:44:46;;;;;;;4.90;4.50;;;16.50;76.10;;;;;;6132225;23;20506;-78
2021/05/11 07:47:27;;;;;;;6.97;4.83;;;16.60;76.30;;;;;;6131564;23;20417;-75
2021/05/11 07:50:19;;;;;;;7.43;4.37;;;17.00;75.70;;;;;;6133570;23;20958;-79
2021/05/11 08:15:42;;;;;;;4.93;3.67;;;17.20;73.30;;;;;;6136902;23;20448;-74
2021/05/11 08:18:26;;;;;;;3.83;3.20;;;17.40;73.20;;;;;;6145500;23;20408;-84
2021/05/11 08:29:46;;;;;;;3.27;3.00;;;17.40;73.00;;;;;;6149331;23;20528;-89
2021/05/11 08:32:21;;;;;;;3.77;3.47;;;17.50;73.10;;;;;;6140426;23;20487;-87
2021/05/11 08:35:00;;;;;;;3.83;3.53;;;17.80;72.50;;;;;;6150396;23;20415;-81
2021/05/11 08:37:41;;;;;;;3.70;3.40;;;18.40;72.10;;;;;;6145390;23;20444;-83
2021/05/11 08:40:16;;;;;;;4.53;3.40;;;18.60;71.30;;;;;;6146901;23;20442;-84
2021/05/11 08:42:52;;;;;;;6.83;4.00;;;17.80;71.70;;;;;;6147278;23;20447;-84
2021/05/11 08:45:27;;;;;;;4.83;3.77;;;17.40;72.40;;;;;;6147237;23;20405;-82
2021/05/11 08:48:03;;;;;;;3.40;3.10;;;17.20;72.90;;;;;;6148448;23;20441;-84
2021/05/11 08:50:42;;;;;;;3.87;3.37;;;17.90;73.10;;;;;;6149053;23;20413;-83
2021/05/11 09:05:18;;;;;;;4.10;3.80;;;19.40;70.00;;;;;;5090022;28;20530;-81
2021/05/11 09:08:10;;;;;;;4.30;3.70;;;19.20;69.20;;;;;;5088237;28;20448;-82
2021/05/11 09:25:29;;;;;;;4.77;3.43;;;18.90;69.70;;;;;;5088544;28;20495;-83
2021/05/11 09:28:37;;;;;;;4.73;3.80;;;18.60;70.30;;;;;;5089286;28;20475;-81
2021/05/11 09:31:29;;;;;;;4.10;3.80;;;18.90;70.00;;;;;;5088770;28;20524;-80
2021/05/11 09:55:26;;;;;;;5.00;4.43;;;19.90;66.90;;;;;;5057905;28;20556;-81
2021/05/11 09:58:11;;;;;;;4.90;4.50;;;19.50;68.00;;;;;;5089452;28;20474;-81
2021/05/11 10:48:49;;;;;;;6.43;5.80;;;18.40;70.80;;;;;;5056608;28;20880;-81
2021/05/11 10:51:30;;;;;;;6.40;5.47;;;18.90;70.90;;;;;;5066566;28;20456;-81
2021/05/11 10:54:09;;;;;;;5.97;5.50;;;19.10;70.80;;;;;;5064927;28;20551;-81
2021/05/11 10:59:46;;;;;;;7.30;6.70;;;18.90;70.20;;;;;;5064024;28;20465;-81
2021/05/11 11:05:41;;;;;;;7.40;6.80;;;18.60;70.80;;;;;;5068295;28;20480;-82
2021/05/11 11:08:33;;;;;;;6.70;6.17;;;19.20;70.30;;;;;;5056441;28;20433;-81
2021/05/11 11:11:17;;;;;;;6.87;6.20;;;19.90;69.40;;;;;;5075191;28;20452;-81
2021/05/11 11:13:53;;;;;;;6.57;6.07;;;20.10;69.00;;;;;;5066966;28;20463;-83
2021/05/11 11:16:28;;;;;;;9.20;6.80;;;19.20;69.60;;;;;;5071221;28;20453;-83
2021/05/11 11:19:16;;;;;;;6.97;6.47;;;18.90;70.20;;;;;;5063148;28;20467;-85
2021/05/11 11:22:02;;;;;;;7.63;6.90;;;19.10;70.10;;;;;;5071116;28;20525;-83
2021/05/11 11:24:38;;;;;;;7.30;6.70;;;19.10;69.90;;;;;;5088911;28;20465;-85
2021/05/11 11:27:14;;;;;;;7.57;6.73;;;19.40;69.90;;;;;;5081537;28;20418;-82
2021/05/11 11:29:48;;;;;;;7.60;6.90;;;19.50;70.70;;;;;;5077597;28;20461;-82
2021/05/11 11:32:27;;;;;;;7.10;6.60;;;19.70;69.50;;;;;;5082105;28;20444;-85
2021/05/11 11:35:03;;;;;;;7.23;6.67;;;20.10;69.30;;;;;;5078263;28;20473;-84
2021/05/11 11:37:39;;;;;;;7.90;7.20;;;19.80;69.20;;;;;;5078784;28;20520;-83
2021/05/11 11:40:19;;;;;;;8.47;7.67;;;19.30;69.80;;;;;;5071253;28;20440;-84
2021/05/11 11:42:55;;;;;;;8.00;7.30;;;19.30;70.10;;;;;;5067467;28;20606;-82
2021/05/11 11:45:31;;;;;;;6.97;6.37;;;19.20;70.50;;;;;;5073600;28;20557;-82
2021/05/11 11:48:06;;;;;;;7.00;6.40;;;19.00;70.60;;;;;;5073638;28;20451;-81
2021/05/11 11:50:41;;;;;;;7.27;6.77;;;19.40;70.30;;;;;;5060778;28;20532;-81
2021/05/11 11:53:20;;;;;;;6.60;6.00;;;19.00;69.90;;;;;;5073265;28;20448;-83
2021/05/11 11:58:47;;;;;;;7.20;5.73;;;18.70;70.80;;;;;;5083457;28;20470;-83
2021/05/11 12:01:22;;;;;;;7.97;6.10;;;18.80;70.60;;;;;;5065039;28;20505;-81
2021/05/11 12:04:01;;;;;;;7.20;6.17;;;18.90;70.40;;;;;;5057756;28;20881;-81
2021/05/11 12:06:37;;;;;;;9.20;8.07;;;19.00;70.60;;;;;;5058913;28;20453;-82
2021/05/11 12:09:13;;;;;;;7.60;7.00;;;18.80;71.30;;;;;;5062885;28;20486;-82
2021/05/11 12:11:49;;;;;;;8.17;7.37;;;18.90;71.50;;;;;;5061305;28;20462;-81
2021/05/11 12:14:25;;;;;;;7.37;6.80;;;18.70;72.40;;;;;;5063727;28;20472;-81
2021/05/11 12:17:00;;;;;;;7.90;7.30;;;18.70;72.40;;;;;;5062624;28;20461;-81
2021/05/11 12:19:36;;;;;;;8.50;7.80;;;18.60;72.30;;;;;;5065520;28;21023;-82
2021/05/11 12:22:12;;;;;;;9.07;8.17;;;18.80;72.10;;;;;;5057263;28;20470;-82
2021/05/11 12:24:48;;;;;;;8.60;7.80;;;19.00;72.60;;;;;;5069097;28;20857;-82
2021/05/11 12:27:24;;;;;;;8.77;8.00;;;18.80;72.70;;;;;;5060029;28;20852;-82
2021/05/11 12:30:19;;;;;;;8.53;7.70;;;18.60;72.80;;;;;;5067079;28;20467;-83
2021/05/11 12:33:03;;;;;;;9.80;8.90;;;18.70;73.00;;;;;;5061477;28;20479;-83
2021/05/11 12:35:38;;;;;;;8.57;7.87;;;18.70;72.80;;;;;;5070540;28;20492;-81
2021/05/11 12:38:25;;;;;;;8.80;8.10;;;18.70;73.20;;;;;;5072970;28;20449;-82
2021/05/11 12:41:05;;;;;;;8.80;8.10;;;18.90;73.00;;;;;;5075800;28;20460;-81
2021/05/11 12:43:58;;;;;;;11.40;9.90;;;18.90;73.40;;;;;;5064752;28;20457;-82
2021/05/11 12:46:36;;;;;;;9.47;8.63;;;18.80;72.90;;;;;;5063452;28;20452;-82
2021/05/11 12:49:18;;;;;;;9.73;8.83;;;19.10;73.70;;;;;;5076050;28;20453;-82
2021/05/11 12:51:57;;;;;;;9.27;8.37;;;19.50;72.50;;;;;;5080682;28;20449;-83
2021/05/11 12:54:33;;;;;;;11.43;9.80;;;19.30;73.20;;;;;;5068559;28;20457;-81
2021/05/11 12:57:17;;;;;;;9.53;8.63;;;19.50;72.50;;;;;;5059624;28;20499;-81
2021/05/11 13:00:00;;;;;;;9.70;8.70;;;19.40;72.50;;;;;;5061703;28;20475;-81
2021/05/11 13:02:51;;;;;;;10.17;9.37;;;19.00;73.30;;;;;;5067367;28;20932;-81
2021/05/11 13:17:10;;;;;;;9.67;8.10;;;19.40;72.70;;;;;;5060569;28;20465;-82
2021/05/11 13:19:56;;;;;;;10.87;8.10;;;19.40;73.00;;;;;;5064886;28;20447;-83
2021/05/11 13:22:55;;;;;;;8.90;8.10;;;19.20;72.50;;;;;;5063825;28;20965;-81
2021/05/11 13:25:33;;;;;;;8.63;7.93;;;19.40;72.70;;;;;;5063293;28;20463;-82
2021/05/11 13:28:12;;;;;;;8.70;8.10;;;18.60;73.60;;;;;;5057031;28;20453;-81
2021/05/11 13:30:51;;;;;;;10.10;9.10;;;18.20;74.10;;;;;;5080875;28;20506;-85
2021/05/11 13:33:31;;;;;;;8.80;8.10;;;18.10;74.70;;;;;;5066634;28;20454;-82
2021/05/11 13:36:08;;;;;;;9.83;8.33;;;18.10;75.40;;;;;;5063390;28;20464;-82
2021/05/11 13:38:42;;;;;;;9.40;8.60;;;18.20;75.90;;;;;;5059423;28;20471;-81
2021/05/11 13:41:17;;;;;;;8.67;7.97;;;18.20;75.50;;;;;;5069573;28;20482;-81
2021/05/11 13:43:57;;;;;;;9.40;8.43;;;18.20;75.60;;;;;;5071668;28;20453;-82
2021/05/11 13:46:32;;;;;;;8.90;8.10;;;18.60;75.50;;;;;;5067407;28;20441;-82
2021/05/11 13:49:07;;;;;;;8.63;7.73;;;18.60;75.30;;;;;;5066662;28;20954;-84
2021/05/11 13:51:42;;;;;;;8.17;7.47;;;19.00;75.00;;;;;;5070586;28;20472;-81
2021/05/11 13:54:18;;;;;;;7.67;6.90;;;19.60;74.10;;;;;;5064111;28;20455;-83
2021/05/11 13:57:00;;;;;;;8.03;7.40;;;19.50;74.30;;;;;;5077372;28;20941;-81
2021/05/11 14:02:39;;;;;;;7.37;6.67;;;20.20;73.30;;;;;;5070234;28;20487;-82
2021/05/11 14:05:15;;;;;;;6.90;6.27;;;19.80;73.10;;;;;;5072319;28;20488;-82
2021/05/11 14:07:51;;;;;;;7.60;7.10;;;19.50;73.60;;;;;;5067383;28;20519;-83
2021/05/11 14:10:26;;;;;;;7.77;7.27;;;19.30;73.30;;;;;;5077642;28;20461;-84
2021/05/11 14:13:07;;;;;;;7.60;7.07;;;19.00;73.70;;;;;;5078521;28;20455;-82
2021/05/11 14:15:42;;;;;;;7.43;6.73;;;18.90;74.10;;;;;;5065649;28;20474;-81
2021/05/11 14:18:17;;;;;;;7.10;6.50;;;18.80;74.00;;;;;;5070847;28;20463;-81
2021/05/11 14:20:53;;;;;;;8.00;7.47;;;18.80;74.30;;;;;;5068934;28;20880;-81
2021/05/11 14:23:29;;;;;;;7.33;6.80;;;18.80;74.60;;;;;;5070599;28;20502;-81
2021/05/11 14:26:05;;;;;;;7.97;7.30;;;18.70;74.80;;;;;;5063900;28;20488;-83
2021/05/11 14:28:39;;;;;;;8.47;7.60;;;18.80;74.80;;;;;;5064022;28;20459;-81
2021/05/11 14:31:14;;;;;;;7.50;6.97;;;18.90;74.40;;;;;;5075481;28;20929;-81
2021/05/11 14:33:47;;;;;;;8.90;6.90;;;18.90;74.50;;;;;;5075769;28;20521;-82
2021/05/11 14:36:22;;;;;;;8.73;7.10;;;18.60;74.60;;;;;;5057838;28;20469;-84
2021/05/11 14:38:58;;;;;;;7.30;6.60;;;18.40;75.30;;;;;;5069844;28;20459;-82
2021/05/11 14:41:35;;;;;;;8.47;6.67;;;18.40;75.40;;;;;;5063445;28;20516;-81
2021/05/11 14:44:18;;;;;;;7.93;7.07;;;18.40;75.50;;;;;;5069877;28;20951;-82
2021/05/11 14:46:56;;;;;;;9.50;7.73;;;18.10;75.60;;;;;;5064169;28;20460;-82
2021/05/11 14:49:33;;;;;;;8.53;7.03;;;18.20;75.90;;;;;;5061202;28;20434;-81
2021/05/11 14:52:12;;;;;;;7.00;6.40;;;18.10;76.30;;;;;;5061473;28;20463;-82
2021/05/11 14:54:48;;;;;;;6.73;6.20;;;18.20;76.30;;;;;;5069204;28;20465;-82
2021/05/11 14:57:22;;;;;;;7.53;6.83;;;18.10;76.50;;;;;;5071888;28;20455;-85
2021/05/11 14:59:58;;;;;;;9.50;6.50;;;17.80;76.30;;;;;;5085365;28;20498;-84
2021/05/11 15:02:34;;;;;;;8.43;7.20;;;17.80;77.10;;;;;;5078929;28;20448;-85
2021/05/11 15:05:08;;;;;;;6.73;6.07;;;17.80;76.90;;;;;;5081721;28;20463;-85
2021/05/11 15:07:43;;;;;;;7.50;6.80;;;18.00;77.00;;;;;;5078616;28;20513;-83
2021/05/11 15:10:21;;;;;;;7.73;7.03;;;18.00;76.90;;;;;;5077949;28;20470;-82
2021/05/11 15:12:56;;;;;;;8.13;7.30;;;18.10;76.70;;;;;;5072678;28;20457;-81
2021/05/11 15:15:34;;;;;;;9.50;7.33;;;17.90;77.10;;;;;;5079111;28;20491;-82
2021/05/11 15:18:13;;;;;;;7.07;6.47;;;17.70;77.60;;;;;;5059096;28;20457;-82
2021/05/11 15:20:55;;;;;;;8.30;6.90;;;17.80;78.20;;;;;;5061359;28;20448;-83
2021/05/11 15:23:27;;;;;;;7.03;6.43;;;17.70;78.60;;;;;;5062895;28;20543;-81
2021/05/11 15:26:08;;;;;;;7.33;6.77;;;17.60;79.30;;;;;;5061946;28;20465;-81
2021/05/11 15:28:43;;;;;;;7.40;6.40;;;17.60;79.90;;;;;;5067240;28;20887;-80
2021/05/11 15:31:18;;;;;;;8.60;7.90;;;17.60;80.70;;;;;;5071323;28;20476;-81
2021/05/11 15:33:56;;;;;;;10.47;9.43;;;17.50;82.00;;;;;;5064401;28;20461;-82
2021/05/11 15:36:31;;;;;;;9.20;8.37;;;17.30;84.60;;;;;;5071227;28;20559;-80
2021/05/11 15:39:03;;;;;;;9.83;8.97;;;17.10;88.00;;;;;;5069156;28;20459;-81
2021/05/11 15:41:40;;;;;;;9.87;8.80;;;16.90;89.90;;;;;;5067129;28;20478;-84
2021/05/11 15:44:11;;;;;;;9.20;8.40;;;16.80;91.50;;;;;;5064599;28;20482;-82
2021/05/11 15:46:44;;;;;;;12.43;9.20;;;16.80;92.60;;;;;;5068131;28;20445;-80
2021/05/11 15:49:18;;;;;;;10.03;9.20;;;16.70;93.70;;;;;;5059036;28;20466;-82
2021/05/11 15:51:54;;;;;;;9.73;8.47;;;16.70;93.80;;;;;;5069659;28;20516;-82
2021/05/11 15:54:34;;;;;;;9.73;9.00;;;16.70;95.70;;;;;;5056379;28;20464;-82
2021/05/11 15:57:10;;;;;;;10.13;9.30;;;16.60;95.70;;;;;;5063869;28;20862;-82
2021/05/11 15:59:45;;;;;;;10.70;9.63;;;16.60;97.30;;;;;;5069984;28;20557;-82
2021/05/11 16:02:20;;;;;;;10.87;9.87;;;16.50;96.80;;;;;;5067957;28;20974;-80
2021/05/11 16:04:55;;;;;;;10.43;9.40;;;16.40;97.10;;;;;;5063388;28;20457;-81
2021/05/11 16:07:30;;;;;;;10.70;9.47;;;16.40;98.50;;;;;;5069830;28;20791;-81
2021/05/11 16:10:07;;;;;;;10.57;9.57;;;16.30;96.40;;;;;;5071373;28;20451;-84
2021/05/11 16:12:43;;;;;;;9.50;8.80;;;16.20;96.80;;;;;;5087409;28;20448;-83
2021/05/11 16:15:19;;;;;;;9.83;9.13;;;16.20;97.80;;;;;;5080564;28;20505;-82
2021/05/11 16:17:54;;;;;;;9.37;8.67;;;16.10;99.70;;;;;;5064575;28;20452;-82
2021/05/11 16:20:30;;;;;;;11.13;10.23;;;16.00;99.90;;;;;;5070353;28;20450;-81
2021/05/11 16:23:07;;;;;;;10.17;9.47;;;15.90;99.90;;;;;;5068851;28;20449;-82
2021/05/11 16:25:44;;;;;;;10.97;10.13;;;15.90;99.90;;;;;;5071778;28;20486;-82
2021/05/11 16:28:28;;;;;;;12.03;11.13;;;15.90;99.90;;;;;;5074369;28;21058;-83
2021/05/11 16:31:03;;;;;;;12.87;11.87;;;15.80;99.90;;;;;;5070900;28;20463;-81
2021/05/11 16:33:39;;;;;;;12.97;11.87;;;15.70;99.90;;;;;;5074654;28;20457;-81
2021/05/11 16:36:14;;;;;;;13.60;12.50;;;15.60;99.90;;;;;;5066343;28;20497;-84
2021/05/11 16:39:00;;;;;;;13.93;12.77;;;15.50;99.90;;;;;;5068970;28;20474;-80
2021/05/11 16:41:37;;;;;;;14.50;13.40;;;15.40;99.90;;;;;;5062920;28;20466;-82
2021/05/11 16:44:13;;;;;;;14.77;13.67;;;15.40;99.90;;;;;;5060004;28;20440;-79
2021/05/11 16:46:56;;;;;;;15.00;13.80;;;15.20;99.90;;;;;;5057750;28;21058;-81
2021/05/11 16:49:31;;;;;;;15.97;14.57;;;15.10;99.90;;;;;;5068275;28;20546;-82
2021/05/11 16:52:13;;;;;;;16.77;15.17;;;15.10;99.90;;;;;;5060064;28;20449;-81
2021/05/11 16:54:53;;;;;;;16.90;15.30;;;15.10;99.90;;;;;;5065637;28;20487;-80
2021/05/11 16:57:30;;;;;;;17.70;16.30;;;15.10;99.90;;;;;;5058351;28;20466;-81
2021/05/11 17:00:13;;;;;;;18.40;16.90;;;15.10;99.90;;;;;;5058431;28;20467;-81
2021/05/11 17:02:47;;;;;;;16.83;15.43;;;15.00;99.90;;;;;;5063446;28;20504;-80
2021/05/11 17:05:23;;;;;;;16.70;15.40;;;15.00;99.90;;;;;;5063506;28;20458;-84